Time;durP1;ratioP1;P1;durP2;ratioP2;P2;SDS_P1;SDS_P2;PMS_P1;PMS_P2;Temp;Humidity;BMP_temperature;BMP_pressure;BME280_temperature;BME280_humidity;BME280_pressure;Samples;Min_cycle;Max_cycle;Signal;HPM_P1;HPM_P2
2022/10/09 00:14:41;;;;;;;8.30;4.70;;;;;;;11.84;100.00;100697.89;640517;1298;139761;-83
2022/10/09 00:29:44;;;;;;;6.50;4.00;;;;;;;11.67;100.00;100710.50;639044;1298;138753;-81
2022/10/09 00:44:58;;;;;;;11.70;5.60;;;;;;;11.46;100.00;100714.23;638202;1304;138689;-82
2022/10/09 01:00:06;;;;;;;10.50;5.20;;;;;;;11.20;100.00;100717.42;638648;1302;139704;-83
2022/10/09 01:15:22;;;;;;;11.20;5.50;;;;;;;11.11;100.00;100722.61;640101;1312;140755;-83
2022/10/09 01:30:26;;;;;;;8.50;4.30;;;;;;;11.13;100.00;100739.38;640054;1304;140135;-82
2022/10/09 01:45:41;;;;;;;8.00;4.30;;;;;;;11.20;100.00;100744.75;639323;1304;1199555;-83
2022/10/09 02:00:51;;;;;;;6.20;4.30;;;;;;;11.25;100.00;100761.55;640339;1310;139345;-83
2022/10/09 02:15:58;;;;;;;7.70;3.90;;;;;;;11.19;100.00;100777.99;640067;1312;140639;-83
2022/10/09 02:31:32;;;;;;;4.60;3.60;;;;;;;11.18;100.00;100811.45;639350;1306;141803;-83
2022/10/09 02:46:37;;;;;;;10.80;4.20;;;;;;;11.04;100.00;100825.73;640292;1297;140733;-83
2022/10/09 03:01:40;;;;;;;9.20;4.50;;;;;;;10.85;100.00;100839.81;639621;1312;139311;-83
2022/10/09 03:16:45;;;;;;;5.60;3.90;;;;;;;10.66;100.00;100856.05;639843;1313;139954;-83
2022/10/09 03:31:48;;;;;;;11.80;4.70;;;;;;;10.50;100.00;100872.37;640010;1304;139182;-82
2022/10/09 03:46:55;;;;;;;8.00;4.30;;;;;;;10.37;100.00;100885.05;638209;1303;139312;-82
2022/10/09 04:01:58;;;;;;;8.40;4.10;;;;;;;10.29;100.00;100901.23;639913;1300;139617;-82
2022/10/09 04:17:01;;;;;;;8.90;5.00;;;;;;;10.17;100.00;100907.73;638897;1299;140755;-81
2022/10/09 04:32:05;;;;;;;8.50;4.70;;;;;;;10.00;100.00;100926.11;639528;1298;140719;-82
2022/10/09 04:47:08;;;;;;;8.30;4.50;;;;;;;9.91;100.00;100947.80;639048;1307;139375;-82
2022/10/09 05:02:13;;;;;;;12.50;5.50;;;;;;;9.80;100.00;100966.88;638639;1296;142179;-82
2022/10/09 05:17:16;;;;;;;6.30;4.30;;;;;;;9.72;100.00;100983.60;638240;1306;140536;-82
2022/10/09 05:32:26;;;;;;;9.10;4.70;;;;;;;9.74;100.00;101010.70;638055;1300;139932;-81
2022/10/09 05:47:30;;;;;;;13.40;6.20;;;;;;;10.05;100.00;101029.05;637691;1299;138731;-82
2022/10/09 06:02:33;;;;;;;12.20;6.20;;;;;;;10.29;100.00;101049.84;637710;1293;139853;-82
2022/10/09 06:17:37;;;;;;;11.70;6.70;;;;;;;10.50;100.00;101078.23;637282;1306;140705;-83
2022/10/09 06:32:39;;;;;;;9.50;5.60;;;;;;;10.72;100.00;101106.67;638805;1298;140377;-82
2022/10/09 06:47:43;;;;;;;8.80;5.50;;;;;;;10.96;100.00;101130.02;639512;1312;139030;-83
2022/10/09 07:02:46;;;;;;;12.40;6.20;;;;;;;11.26;100.00;101142.28;639795;1304;140340;-83
2022/10/09 07:17:50;;;;;;;13.90;4.40;;;;;;;11.88;100.00;101159.00;639952;1312;139118;-83
2022/10/09 07:32:53;;;;;;;6.60;3.90;;;;;;;12.18;100.00;101182.73;640860;1291;139713;-83
2022/10/09 07:47:56;;;;;;;12.00;7.90;;;;;;;12.77;100.00;101197.92;644651;1290;139889;-83
2022/10/09 08:03:00;;;;;;;13.70;5.40;;;;;;;13.54;100.00;101207.13;640055;1291;143042;-82
2022/10/09 08:18:03;;;;;;;6.90;3.10;;;;;;;13.76;100.00;101226.21;639869;1289;139456;-83
2022/10/09 08:33:07;;;;;;;12.60;3.50;;;;;;;14.14;99.26;101235.17;639636;1297;140389;-83
2022/10/09 08:48:24;;;;;;;8.40;3.90;;;;;;;14.70;98.20;101251.94;639523;1313;139328;-83
2022/10/09 09:04:11;;;;;;;69.50;30.30;;;;;;;15.48;95.50;101273.48;639869;1293;140564;-83
2022/10/09 09:19:44;;;;;;;11.30;5.00;;;;;;;15.69;90.15;101286.77;640050;1298;140761;-84
2022/10/09 09:34:48;;;;;;;29.30;6.30;;;;;;;15.60;87.91;101298.16;639841;1297;139944;-83
2022/10/09 09:49:57;;;;;;;26.30;13.90;;;;;;;15.73;85.47;101306.48;640118;1298;141043;-83
2022/10/09 10:05:08;;;;;;;;;;;;;;;16.75;82.22;101305.04;639425;1301;139589;-83
2022/10/09 10:20:17;;;;;;;28.00;8.20;;;;;;;17.70;75.85;101306.38;640423;1297;126247;-83
2022/10/09 10:35:32;;;;;;;23.40;7.00;;;;;;;17.61;74.77;101315.98;641530;1293;140268;-82
2022/10/09 10:50:59;;;;;;;6.20;2.40;;;;;;;17.76;70.75;101317.36;639664;1303;139531;-83
2022/10/09 11:06:11;;;;;;;20.10;5.60;;;;;;;17.82;67.96;101316.02;639861;1303;138840;-83
2022/10/09 11:21:36;;;;;;;6.80;2.90;;;;;;;19.17;66.06;101320.45;640049;1306;138543;-84
2022/10/09 11:36:43;;;;;;;8.10;4.50;;;;;;;18.95;64.70;101328.31;639338;1307;138307;-84
2022/10/09 11:52:25;;;;;;;18.40;7.40;;;;;;;19.51;63.52;101317.86;640493;1303;138368;-85
2022/10/09 12:07:34;;;;;;;11.90;4.20;;;;;;;20.02;61.85;101320.90;639763;1305;139829;-83
2022/10/09 12:22:43;;;;;;;6.40;4.40;;;;;;;18.32;63.69;101324.12;640448;1307;138427;-83
2022/10/09 12:38:23;;;;;;;8.60;2.80;;;;;;;17.59;64.63;101317.08;642889;1302;139983;-84
2022/10/09 12:53:27;;;;;;;15.60;8.30;;;;;;;18.32;63.80;101315.27;641018;1303;139778;-83
2022/10/09 13:08:34;;;;;;;3.90;1.40;;;;;;;19.31;61.89;101320.39;639889;1304;140638;-83
2022/10/09 13:23:38;;;;;;;4.10;1.70;;;;;;;19.15;61.71;101324.09;639158;1306;138770;-83
2022/10/09 13:38:42;;;;;;;11.70;6.40;;;;;;;27.00;51.34;101319.11;638720;1297;996724;-83
2022/10/09 13:53:45;;;;;;;11.70;5.90;;;;;;;22.72;49.67;101313.70;639065;1291;140180;-83
2022/10/09 14:08:48;;;;;;;12.90;6.20;;;;;;;28.80;48.51;101324.39;638150;1301;139480;-82
2022/10/09 14:23:57;;;;;;;16.80;8.70;;;;;;;32.64;43.10;101327.80;638706;1304;139480;-82
2022/10/09 14:39:00;;;;;;;22.40;11.30;;;;;;;32.97;41.46;101326.14;639247;1290;139170;-82
2022/10/09 14:54:06;;;;;;;21.30;10.00;;;;;;;32.00;39.94;101321.04;639835;1297;141595;-82
2022/10/09 15:09:09;;;;;;;12.10;8.30;;;;;;;24.33;45.73;101311.14;638814;1297;138527;-82
2022/10/09 15:24:12;;;;;;;14.00;8.50;;;;;;;22.89;49.68;101309.34;639004;1306;140067;-82
2022/10/09 15:39:16;;;;;;;24.70;14.40;;;;;;;26.08;48.07;101319.51;639894;1290;138943;-82
2022/10/09 15:54:19;;;;;;;18.90;13.80;;;;;;;22.95;50.23;101330.45;639801;1292;139147;-82
2022/10/09 16:09:23;;;;;;;82.80;44.50;;;;;;;18.26;55.12;101340.84;647857;1300;139718;-82
2022/10/09 16:24:26;;;;;;;120.80;49.10;;;;;;;16.12;59.56;101352.08;647333;1309;140865;-81
2022/10/09 16:39:30;;;;;;;101.80;48.00;;;;;;;15.11;62.96;101358.98;641592;1312;140265;-82
2022/10/09 16:54:33;;;;;;;174.60;104.70;;;;;;;14.53;65.29;101371.50;640034;1307;138975;-82
2022/10/09 17:09:37;;;;;;;73.90;40.10;;;;;;;14.01;67.68;101383.73;640199;1300;140189;-82
2022/10/09 17:24:40;;;;;;;242.10;88.30;;;;;;;13.36;69.43;101399.30;639543;1306;138649;-82
2022/10/09 17:39:45;;;;;;;125.10;58.40;;;;;;;12.76;70.79;101408.29;639390;1312;138740;-81
2022/10/09 17:54:54;;;;;;;21.50;12.50;;;;;;;12.25;72.78;101418.59;639564;1312;139401;-82
2022/10/09 18:09:58;;;;;;;34.10;19.30;;;;;;;11.93;75.09;101424.13;639615;1312;139495;-82
2022/10/09 18:25:04;;;;;;;82.00;30.60;;;;;;;11.65;76.95;101425.34;639799;1312;140319;-82
2022/10/09 18:40:08;;;;;;;82.00;41.90;;;;;;;11.18;78.62;101427.73;640288;1311;139525;-83
2022/10/09 18:55:17;;;;;;;73.80;40.10;;;;;;;11.06;79.78;101440.35;639768;1306;139447;-82
2022/10/09 19:10:21;;;;;;;76.60;35.60;;;;;;;10.78;80.25;101443.58;640289;1307;139060;-82
2022/10/09 19:25:24;;;;;;;47.10;24.20;;;;;;;10.61;81.82;101447.54;642937;1312;139891;-82
2022/10/09 19:40:28;;;;;;;59.30;28.60;;;;;;;10.42;81.80;101450.02;651648;1307;140045;-81
2022/10/09 19:55:33;;;;;;;71.80;28.50;;;;;;;10.10;82.55;101457.95;649553;1307;139126;-81
2022/10/09 20:10:37;;;;;;;46.60;21.80;;;;;;;10.11;83.74;101460.14;645486;1307;139068;-81
2022/10/09 20:25:41;;;;;;;46.70;22.70;;;;;;;9.92;84.82;101459.46;639768;1305;140029;-81
2022/10/09 20:40:45;;;;;;;47.30;21.70;;;;;;;9.74;85.23;101461.36;639456;1308;139797;-81
2022/10/09 20:55:48;;;;;;;38.80;18.90;;;;;;;9.39;84.34;101464.36;640164;1304;140839;-81
2022/10/09 21:10:52;;;;;;;36.80;18.20;;;;;;;9.06;84.92;101465.52;639926;1306;139168;-81
2022/10/09 21:25:55;;;;;;;36.80;18.90;;;;;;;8.81;84.72;101468.69;639832;1306;140160;-81
2022/10/09 21:40:58;;;;;;;41.40;20.70;;;;;;;8.54;84.60;101467.52;639198;1313;138961;-81
2022/10/09 21:56:03;;;;;;;24.30;12.10;;;;;;;8.21;84.24;101465.94;639741;1300;139955;-81
2022/10/09 22:11:07;;;;;;;36.20;18.40;;;;;;;8.10;86.23;101470.42;639187;1312;139876;-81
2022/10/09 22:26:13;;;;;;;42.20;22.50;;;;;;;7.77;85.35;101472.15;639316;1305;139952;-82
2022/10/09 22:41:20;;;;;;;45.10;21.60;;;;;;;7.63;85.32;101482.70;638907;1310;139032;-81
2022/10/09 22:56:26;;;;;;;51.00;25.00;;;;;;;7.30;85.17;101479.65;639062;1294;139496;-81
2022/10/09 23:11:29;;;;;;;107.00;42.90;;;;;;;7.12;84.92;101476.47;639662;1303;139629;-81
2022/10/09 23:26:33;;;;;;;122.00;51.70;;;;;;;7.03;85.20;101468.77;638987;1299;139982;-82
2022/10/09 23:41:36;;;;;;;139.10;50.70;;;;;;;6.83;85.17;101468.45;638463;1312;141756;-82
2022/10/09 23:56:41;;;;;;;79.80;37.20;;;;;;;6.73;85.89;101478.52;638826;1312;142532;-81
